Beulah, Mississippi
Current Conditions -  °F | °C
As of 6:35 PM on Monday 24 Nov 2014 (Local Time) from KRNV Reporting Station
Clear Clear  
Wind Chill: 49°   Ceiling: Unl
Heat Index: 49°   Visibility: 10mi
Dew Point: 43°   Wind: 3mph
Humidity: 81%   Direction: 250°WSW
Pressure: 30.02"   Gusts: NA
Location:  33.79°N, 90.98°W
Report Text: KRNV 250035Z AUTO 25003KT 10SM CLR 10/06 A3002 RMK AO2 T00950063
Loading
Personal Weather Stations






























Interactive Weather Map New forecast layout! Learn more

10-Day Weather Forecast

Advertisements
Track Severe Weather on mobile